createdAt,value
2023-05-22T00:11:01.876Z,54.11
2023-05-22T00:26:04.790Z,55.23
2023-05-22T00:41:07.519Z,55.66
2023-05-22T00:56:10.565Z,55.22
2023-05-22T01:11:23.198Z,55.05
2023-05-22T01:26:47.220Z,54.70
2023-05-22T01:41:50.569Z,54.46
2023-05-22T01:57:08.422Z,55.47
2023-05-22T02:12:12.736Z,54.64
2023-05-22T02:27:16.880Z,55.04
2023-05-22T02:42:19.554Z,54.62
2023-05-22T02:57:22.149Z,53.95
2023-05-22T03:12:24.700Z,52.66
2023-05-22T03:27:27.510Z,54.84
2023-05-22T03:42:30.030Z,55.50
2023-05-22T03:57:33.309Z,52.06
2023-05-22T04:12:36.207Z,53.87
2023-05-22T04:27:39.038Z,51.81
2023-05-22T04:42:42.487Z,47.83
2023-05-22T04:57:45.470Z,44.33
2023-05-22T05:12:48.277Z,42.33
2023-05-22T05:27:51.015Z,39.60
2023-05-22T05:42:53.728Z,37.33
2023-05-22T05:57:56.378Z,36.21
2023-05-22T06:12:59.277Z,35.85
2023-05-22T06:28:02.463Z,34.80
2023-05-22T06:43:05.086Z,34.07
2023-05-22T06:58:07.856Z,33.20
2023-05-22T07:13:11.277Z,31.90
2023-05-22T07:28:14.041Z,31.78
2023-05-22T07:43:16.727Z,30.77
2023-05-22T07:58:19.763Z,30.88
2023-05-22T08:13:22.695Z,30.99
2023-05-22T08:28:25.718Z,29.97
2023-05-22T08:43:29.372Z,29.48
2023-05-22T08:58:35.130Z,29.06
2023-05-22T09:13:40.630Z,28.51
2023-05-22T09:28:44.448Z,28.37
2023-05-22T09:43:51.298Z,27.99
2023-05-22T09:58:54.055Z,27.26
2023-05-22T10:13:58.873Z,27.60
2023-05-22T10:29:14.932Z,28.60
2023-05-22T10:44:18.325Z,29.73
2023-05-22T10:59:34.295Z,30.46
2023-05-22T11:14:37.372Z,30.78
2023-05-22T11:29:42.914Z,31.23
2023-05-22T11:44:45.954Z,32.32
2023-05-22T11:59:48.921Z,33.34
2023-05-22T12:14:51.804Z,33.20
2023-05-22T12:29:56.703Z,32.94
2023-05-22T12:45:00.618Z,33.26
2023-05-22T13:00:05.919Z,33.28
2023-05-22T13:15:08.984Z,33.43
2023-05-22T13:30:12.233Z,32.90
2023-05-22T13:45:15.106Z,33.07
2023-05-22T14:00:18.678Z,32.47
2023-05-22T14:15:21.973Z,33.05
2023-05-22T14:30:26.505Z,33.21
2023-05-22T14:45:29.411Z,33.23
2023-05-22T15:00:32.213Z,33.71
2023-05-22T15:15:34.943Z,33.41
2023-05-22T15:30:39.110Z,33.92
2023-05-22T15:45:47.278Z,33.52
2023-05-22T16:00:50.309Z,34.00
2023-05-22T16:15:53.516Z,34.19
2023-05-22T16:30:56.517Z,34.97
2023-05-22T16:45:59.391Z,35.98
2023-05-22T17:01:02.056Z,36.69
2023-05-22T17:16:05.271Z,37.71
2023-05-22T17:31:08.145Z,38.54
2023-05-22T17:46:11.132Z,38.77
2023-05-22T18:01:13.933Z,39.44
2023-05-22T18:16:20.063Z,39.89
2023-05-22T18:31:23.174Z,40.22
2023-05-22T18:46:27.170Z,40.56
2023-05-22T19:01:29.987Z,41.16
2023-05-22T19:16:33.114Z,41.95
2023-05-22T19:31:36.578Z,42.90
2023-05-22T19:46:39.584Z,43.43
2023-05-22T20:01:43.265Z,44.40
2023-05-22T20:16:46.548Z,43.93
2023-05-22T20:31:54.933Z,45.00
2023-05-22T20:46:58.376Z,45.28
2023-05-22T21:02:01.324Z,48.76
2023-05-22T21:17:04.520Z,50.32
2023-05-22T21:32:08.012Z,51.81
2023-05-22T21:47:10.730Z,52.52
2023-05-22T22:02:13.851Z,50.06
2023-05-22T22:17:23.777Z,47.34
2023-05-22T22:32:27.231Z,49.56
2023-05-22T22:47:30.176Z,49.55
2023-05-22T23:02:32.869Z,47.50
2023-05-22T23:17:36.027Z,48.26
2023-05-22T23:32:38.907Z,47.15
2023-05-22T23:47:41.751Z,51.21
